Time;durP1;ratioP1;P1;durP2;ratioP2;P2;SDS_P1;SDS_P2;PMS_P1;PMS_P2;Temp;Humidity;BMP_temperature;BMP_pressure;BME280_temperature;BME280_humidity;BME280_pressure;Samples;Min_cycle;Max_cycle;Signal;HPM_P1;HPM_P2
2023/06/11 00:00:29;;;;;;;2.90;1.20;;;21.60;1.00;;;;;;5116130;28;20450;-59
2023/06/11 00:02:57;;;;;;;2.50;1.20;;;21.70;1.00;;;;;;5116127;28;20420;-59
2023/06/11 00:05:27;;;;;;;1.90;1.30;;;21.80;99.90;;;;;;5116217;28;20443;-59
2023/06/11 00:07:55;;;;;;;1.60;1.30;;;21.90;99.90;;;;;;5115243;28;20477;-59
2023/06/11 00:10:22;;;;;;;1.75;1.30;;;21.90;99.90;;;;;;5115212;28;20792;-59
2023/06/11 00:12:49;;;;;;;1.80;1.23;;;21.90;99.90;;;;;;5115403;28;20496;-59
2023/06/11 00:15:16;;;;;;;1.80;1.50;;;21.80;99.90;;;;;;5114968;28;20473;-59
2023/06/11 00:17:43;;;;;;;1.50;1.30;;;21.80;1.00;;;;;;5114861;28;20459;-59
2023/06/11 00:20:12;;;;;;;2.10;1.50;;;21.70;1.00;;;;;;5114908;28;20497;-58
2023/06/11 00:22:40;;;;;;;2.10;1.70;;;21.70;1.00;;;;;;5115519;28;20431;-57
2023/06/11 00:25:09;;;;;;;1.50;1.20;;;21.60;1.00;;;;;;5115331;28;20455;-57
2023/06/11 00:27:37;;;;;;;1.70;1.40;;;21.50;30.50;;;;;;5115762;28;20488;-57
2023/06/11 00:30:04;;;;;;;1.40;1.15;;;21.50;99.90;;;;;;5115367;28;20473;-57
2023/06/11 00:32:32;;;;;;;2.83;1.30;;;21.40;1.00;;;;;;5115815;28;20777;-57
2023/06/11 00:34:59;;;;;;;1.90;1.40;;;21.30;1.20;;;;;;5115474;28;20420;-57
2023/06/11 00:37:30;;;;;;;1.60;1.10;;;21.20;1.00;;;;;;5115471;28;20520;-57
2023/06/11 00:39:57;;;;;;;1.90;1.50;;;21.10;99.90;;;;;;5115469;28;20432;-58
2023/06/11 00:42:24;;;;;;;2.10;1.40;;;21.10;1.00;;;;;;5115092;28;20432;-57
2023/06/11 00:44:51;;;;;;;1.77;1.33;;;21.10;1.00;;;;;;5115463;28;20416;-58
2023/06/11 00:47:18;;;;;;;1.60;1.30;;;21.10;1.00;;;;;;5115673;28;20909;-59
2023/06/11 00:49:46;;;;;;;1.80;1.50;;;21.10;1.00;;;;;;5115803;28;20416;-59
2023/06/11 00:52:18;;;;;;;2.15;1.50;;;21.10;1.00;;;;;;5115451;28;20427;-59
2023/06/11 00:54:47;;;;;;;1.92;1.60;;;21.00;1.00;;;;;;5115706;28;20424;-59
2023/06/11 00:57:17;;;;;;;1.75;1.20;;;21.00;99.90;;;;;;5115431;28;20505;-58
2023/06/11 00:59:47;;;;;;;1.45;1.30;;;20.90;99.90;;;;;;5115332;28;20985;-58
2023/06/11 01:02:21;;;;;;;1.50;1.40;;;20.90;99.90;;;;;;5113110;28;20524;-59
2023/06/11 01:04:53;;;;;;;1.60;1.50;;;20.90;99.90;;;;;;5113839;28;20426;-59
2023/06/11 01:07:22;;;;;;;2.00;1.40;;;21.00;99.90;;;;;;5112338;28;20449;-58
2023/06/11 01:09:52;;;;;;;1.90;1.40;;;21.10;99.90;;;;;;5114434;28;20428;-59
2023/06/11 01:12:21;;;;;;;1.80;1.40;;;21.00;99.90;;;;;;5114705;28;20473;-58
2023/06/11 01:14:48;;;;;;;2.90;1.55;;;21.00;99.90;;;;;;5115724;28;20504;-58
2023/06/11 01:17:22;;;;;;;1.50;1.30;;;20.90;1.00;;;;;;5113922;28;20804;-58
2023/06/11 01:20:10;;;;;;;1.70;1.50;;;20.90;1.00;;;;;;5113821;28;20428;-58
2023/06/11 01:22:51;;;;;;;2.33;1.60;;;20.90;1.00;;;;;;5114203;28;20427;-58
2023/06/11 01:25:31;;;;;;;2.10;1.60;;;20.80;99.90;;;;;;5113008;28;20430;-59
2023/06/11 01:28:06;;;;;;;1.70;1.40;;;20.70;99.90;;;;;;5114443;28;20436;-58
2023/06/11 01:30:36;;;;;;;1.73;1.40;;;20.70;99.90;;;;;;5114971;28;20529;-58
2023/06/11 01:33:05;;;;;;;3.40;1.30;;;20.80;99.90;;;;;;5114572;28;20477;-57
2023/06/11 01:35:34;;;;;;;2.00;1.42;;;20.80;1.00;;;;;;5113630;28;20412;-57
2023/06/11 01:38:02;;;;;;;1.70;1.30;;;20.90;40.70;;;;;;5112683;28;20458;-57
2023/06/11 01:40:30;;;;;;;1.60;1.50;;;20.80;1.00;;;;;;5114195;28;20440;-57
2023/06/11 01:42:57;;;;;;;1.73;1.40;;;20.90;1.00;;;;;;5114885;28;20466;-58
2023/06/11 01:45:26;;;;;;;1.80;1.40;;;20.90;1.00;;;;;;5114205;28;20468;-58
2023/06/11 01:47:53;;;;;;;1.50;1.30;;;20.90;1.00;;;;;;5114700;28;20843;-58
2023/06/11 01:50:20;;;;;;;2.08;1.50;;;20.90;1.00;;;;;;5114857;28;20424;-58
2023/06/11 01:52:48;;;;;;;1.60;1.30;;;20.90;1.00;;;;;;5115286;28;20424;-58
2023/06/11 01:55:15;;;;;;;2.03;1.60;;;20.90;1.00;;;;;;5115288;28;20793;-58
2023/06/11 01:57:43;;;;;;;1.50;1.20;;;20.90;1.00;;;;;;5113817;28;20798;-57
2023/06/11 02:00:11;;;;;;;1.70;1.30;;;20.90;99.90;;;;;;5114543;28;20435;-58
2023/06/11 02:02:42;;;;;;;1.80;1.40;;;20.80;20.60;;;;;;5114570;28;20473;-59
2023/06/11 02:05:09;;;;;;;2.13;1.60;;;20.80;99.90;;;;;;5115036;28;20428;-58
2023/06/11 02:07:36;;;;;;;2.10;1.48;;;20.70;99.90;;;;;;5114852;28;20485;-58
2023/06/11 02:10:04;;;;;;;2.00;1.70;;;20.70;99.90;;;;;;5113906;28;20416;-58
2023/06/11 02:12:31;;;;;;;1.80;1.40;;;20.70;99.90;;;;;;5113835;28;20894;-58
2023/06/11 02:14:58;;;;;;;2.10;1.50;;;20.60;99.90;;;;;;5117184;28;20424;-58
2023/06/11 02:17:25;;;;;;;2.40;1.30;;;20.60;99.90;;;;;;5118477;28;20477;-57
2023/06/11 02:19:53;;;;;;;3.47;1.50;;;20.60;1.00;;;;;;5118460;28;20491;-57
2023/06/11 02:22:20;;;;;;;1.70;1.60;;;20.50;1.00;;;;;;5117989;28;20520;-57
2023/06/11 02:24:47;;;;;;;2.20;1.40;;;20.40;1.00;;;;;;5118308;28;20424;-58
2023/06/11 02:27:14;;;;;;;2.00;1.40;;;20.30;1.00;;;;;;5117476;28;20416;-57
2023/06/11 02:29:41;;;;;;;2.30;1.50;;;20.30;1.00;;;;;;5117624;28;20440;-58
2023/06/11 02:32:08;;;;;;;2.42;1.50;;;20.20;64.70;;;;;;5117430;28;20667;-57
2023/06/11 02:34:35;;;;;;;2.00;1.40;;;20.20;99.90;;;;;;5117115;28;20766;-57
2023/06/11 02:37:04;;;;;;;1.90;1.63;;;20.10;99.90;;;;;;5117409;28;20831;-58
2023/06/11 02:39:31;;;;;;;2.03;1.60;;;20.10;99.90;;;;;;5116646;28;20572;-58
2023/06/11 02:41:58;;;;;;;2.10;1.70;;;20.10;99.90;;;;;;5116817;28;20473;-58
2023/06/11 02:44:25;;;;;;;1.73;1.35;;;20.10;99.90;;;;;;5117183;28;20424;-58
2023/06/11 02:46:52;;;;;;;1.70;1.50;;;20.00;99.90;;;;;;5117433;28;20452;-61
2023/06/11 02:49:19;;;;;;;1.80;1.33;;;20.00;99.90;;;;;;5117786;28;20789;-58
2023/06/11 02:51:46;;;;;;;2.50;1.60;;;20.00;99.90;;;;;;5117978;28;20791;-59
2023/06/11 02:54:14;;;;;;;1.70;1.52;;;20.10;99.90;;;;;;5117580;28;20462;-58
2023/06/11 02:56:41;;;;;;;1.85;1.50;;;20.10;88.90;;;;;;5116966;28;20445;-58
2023/06/11 02:59:08;;;;;;;3.20;1.40;;;20.20;1.00;;;;;;5117640;28;20425;-58
2023/06/11 03:01:35;;;;;;;1.65;1.30;;;20.20;1.00;;;;;;5117643;28;20428;-58
2023/06/11 03:04:02;;;;;;;1.83;1.40;;;20.20;1.00;;;;;;5117647;28;20424;-58
2023/06/11 03:06:29;;;;;;;1.77;1.40;;;20.20;1.00;;;;;;5116364;28;20421;-58
2023/06/11 03:08:56;;;;;;;3.13;1.50;;;20.20;1.00;;;;;;5114383;28;20414;-58
2023/06/11 03:11:25;;;;;;;2.50;1.40;;;20.20;1.00;;;;;;5115263;28;20420;-58
2023/06/11 03:13:52;;;;;;;1.60;1.40;;;20.20;1.00;;;;;;5114710;28;20428;-57
2023/06/11 03:16:19;;;;;;;1.60;1.30;;;20.10;1.00;;;;;;5115699;28;20469;-58
2023/06/11 03:18:47;;;;;;;1.70;1.35;;;20.10;40.10;;;;;;5114776;28;20490;-58
2023/06/11 03:21:14;;;;;;;2.33;1.50;;;20.10;83.70;;;;;;5115584;28;20512;-57
2023/06/11 03:23:41;;;;;;;2.20;1.30;;;20.00;99.90;;;;;;5117598;28;20416;-58
2023/06/11 03:26:08;;;;;;;1.80;1.30;;;20.00;86.10;;;;;;5116875;28;20455;-58
2023/06/11 03:28:36;;;;;;;2.00;1.48;;;20.00;99.90;;;;;;5116974;28;20990;-58
2023/06/11 03:31:03;;;;;;;2.50;1.70;;;19.90;83.00;;;;;;5117348;28;20424;-58
2023/06/11 03:33:30;;;;;;;2.53;1.90;;;19.90;99.90;;;;;;5076821;28;20465;-58
2023/06/11 03:35:57;;;;;;;2.88;1.70;;;19.90;99.90;;;;;;5077136;28;20411;-58
2023/06/11 03:38:24;;;;;;;3.70;1.73;;;19.90;99.90;;;;;;5076240;28;20470;-58
2023/06/11 03:40:51;;;;;;;2.20;1.40;;;19.90;99.90;;;;;;5075842;28;20867;-58
2023/06/11 03:43:18;;;;;;;2.10;1.55;;;19.80;99.90;;;;;;5074980;28;21045;-57
2023/06/11 03:45:46;;;;;;;1.70;1.50;;;19.80;99.90;;;;;;5075849;28;20427;-58
2023/06/11 03:48:13;;;;;;;2.58;1.50;;;19.80;99.90;;;;;;5074821;28;20855;-58
2023/06/11 03:50:40;;;;;;;2.00;1.55;;;19.80;99.90;;;;;;5075065;28;20477;-58
2023/06/11 03:53:07;;;;;;;1.50;1.30;;;19.80;99.90;;;;;;5074779;28;20517;-58
2023/06/11 03:55:34;;;;;;;1.88;1.60;;;19.80;99.90;;;;;;5075180;28;20427;-58
2023/06/11 03:58:01;;;;;;;1.90;1.70;;;19.80;99.90;;;;;;5075573;28;20431;-58
2023/06/11 04:00:31;;;;;;;1.60;1.20;;;19.80;99.90;;;;;;5074549;28;20442;-58
2023/06/11 04:03:00;;;;;;;1.70;1.40;;;19.70;99.90;;;;;;5072917;28;20450;-58
2023/06/11 04:05:27;;;;;;;1.70;1.50;;;19.70;99.90;;;;;;5072919;28;20439;-58
2023/06/11 04:07:54;;;;;;;2.00;1.45;;;19.70;99.90;;;;;;5073755;28;20435;-58
2023/06/11 04:10:22;;;;;;;2.50;1.40;;;19.70;99.90;;;;;;5074521;28;20450;-58
2023/06/11 04:12:49;;;;;;;1.80;1.40;;;19.70;99.90;;;;;;5074196;28;20466;-58
2023/06/11 04:15:16;;;;;;;1.70;1.20;;;19.80;99.90;;;;;;5074830;28;20451;-58
2023/06/11 04:17:43;;;;;;;1.40;1.20;;;19.90;99.90;;;;;;5075667;28;20430;-58
2023/06/11 04:20:11;;;;;;;1.70;1.42;;;19.90;1.00;;;;;;5075356;28;20486;-58
2023/06/11 04:22:38;;;;;;;2.20;1.30;;;19.80;1.00;;;;;;5075734;28;20451;-55
2023/06/11 04:25:07;;;;;;;1.63;1.38;;;19.70;56.90;;;;;;5075146;28;20481;-57
2023/06/11 04:27:36;;;;;;;1.80;1.40;;;19.70;85.30;;;;;;5075099;28;20445;-56
2023/06/11 04:30:04;;;;;;;2.55;1.40;;;19.50;99.90;;;;;;5074048;28;20415;-57
2023/06/11 04:32:34;;;;;;;2.30;1.40;;;19.50;99.90;;;;;;5099667;28;20469;-57
2023/06/11 04:35:02;;;;;;;1.58;1.30;;;19.50;99.90;;;;;;5115782;28;20428;-57
2023/06/11 04:37:37;;;;;;;1.70;1.40;;;19.50;99.90;;;;;;5115529;28;20424;-57
2023/06/11 04:40:09;;;;;;;2.20;1.40;;;19.50;99.90;;;;;;5115754;28;20428;-57
2023/06/11 04:42:36;;;;;;;2.40;1.40;;;19.50;99.90;;;;;;5114699;28;20447;-57
2023/06/11 04:45:05;;;;;;;1.80;1.40;;;19.50;99.90;;;;;;5115901;28;20855;-57
2023/06/11 04:47:33;;;;;;;1.60;1.40;;;19.40;99.90;;;;;;5115334;28;20514;-56
2023/06/11 04:50:03;;;;;;;1.90;1.20;;;19.40;1.00;;;;;;5115494;28;20424;-56
2023/06/11 04:52:32;;;;;;;1.90;1.30;;;19.40;99.90;;;;;;5115926;28;20828;-58
2023/06/11 04:55:00;;;;;;;1.80;1.40;;;19.50;99.90;;;;;;5115326;28;20778;-59
2023/06/11 04:57:27;;;;;;;1.63;1.20;;;19.60;99.90;;;;;;5115515;28;20424;-58
2023/06/11 04:59:54;;;;;;;2.25;1.40;;;19.70;99.90;;;;;;5115301;28;20452;-58
2023/06/11 05:02:22;;;;;;;1.88;1.55;;;19.80;99.90;;;;;;5115189;28;20424;-56
2023/06/11 05:04:53;;;;;;;2.50;1.60;;;19.90;99.90;;;;;;5116546;28;20508;-59
2023/06/11 05:07:20;;;;;;;3.00;1.58;;;19.90;78.00;;;;;;5115565;28;20439;-59
2023/06/11 05:09:48;;;;;;;1.90;1.40;;;19.90;99.90;;;;;;5115237;28;20431;-59
2023/06/11 05:12:15;;;;;;;2.00;1.60;;;19.80;99.90;;;;;;5113774;28;20469;-58
2023/06/11 05:14:44;;;;;;;1.70;1.30;;;19.80;99.90;;;;;;5115491;28;20836;-59
2023/06/11 05:17:11;;;;;;;2.40;1.50;;;19.80;99.90;;;;;;5115471;28;20426;-59
2023/06/11 05:19:38;;;;;;;2.77;1.30;;;20.00;99.90;;;;;;5115354;28;20885;-59
2023/06/11 05:22:05;;;;;;;1.90;1.30;;;20.10;1.00;;;;;;5115477;28;20432;-56
2023/06/11 05:24:32;;;;;;;3.25;1.50;;;20.10;1.00;;;;;;5114135;28;20639;-58
2023/06/11 05:27:00;;;;;;;1.80;1.35;;;20.00;1.00;;;;;;5115067;28;20417;-57
2023/06/11 05:29:27;;;;;;;2.08;1.20;;;20.10;1.00;;;;;;5114998;28;20488;-58
2023/06/11 05:31:56;;;;;;;2.00;1.40;;;20.20;1.00;;;;;;5114253;28;20724;-58
2023/06/11 05:34:25;;;;;;;2.00;1.67;;;20.20;99.90;;;;;;5114977;28;20518;-58
2023/06/11 05:36:53;;;;;;;1.50;1.20;;;20.10;99.90;;;;;;5114490;28;20465;-58
2023/06/11 05:39:20;;;;;;;2.47;1.30;;;20.10;99.90;;;;;;5114646;28;20494;-59
2023/06/11 05:41:47;;;;;;;2.05;1.30;;;20.00;30.00;;;;;;5114552;28;20428;-58
2023/06/11 05:44:17;;;;;;;1.80;1.30;;;20.00;9.80;;;;;;5113738;28;20424;-57
2023/06/11 05:46:44;;;;;;;1.70;1.30;;;20.20;1.00;;;;;;5114765;28;20459;-59
2023/06/11 05:49:11;;;;;;;1.70;1.20;;;20.20;99.90;;;;;;5118456;28;20524;-59
2023/06/11 05:51:38;;;;;;;1.75;1.20;;;20.20;99.90;;;;;;5118714;28;20453;-59
2023/06/11 05:54:05;;;;;;;1.90;1.30;;;20.20;99.90;;;;;;5117969;28;20413;-59
2023/06/11 05:56:32;;;;;;;1.92;1.50;;;20.30;99.90;;;;;;5117601;28;20444;-58
2023/06/11 05:58:59;;;;;;;2.00;1.30;;;20.30;99.90;;;;;;5118110;28;20720;-59
2023/06/11 06:01:28;;;;;;;1.90;1.20;;;20.30;99.90;;;;;;5117973;28;20428;-59
2023/06/11 06:03:55;;;;;;;1.80;1.20;;;20.50;99.90;;;;;;5118091;28;20889;-58
2023/06/11 06:06:22;;;;;;;1.83;1.40;;;20.60;99.90;;;;;;5116954;28;20427;-58
2023/06/11 06:08:49;;;;;;;2.20;1.40;;;20.80;99.90;;;;;;5117017;28;20416;-59
2023/06/11 06:11:16;;;;;;;2.90;1.30;;;20.80;99.90;;;;;;5118602;28;20728;-58
2023/06/11 06:13:43;;;;;;;1.60;1.40;;;20.80;99.90;;;;;;5119211;28;20778;-58
2023/06/11 06:16:10;;;;;;;1.80;1.40;;;20.80;99.90;;;;;;5118448;28;20721;-58
2023/06/11 06:18:38;;;;;;;1.70;1.60;;;20.80;99.90;;;;;;5118903;28;20416;-58
2023/06/11 06:21:06;;;;;;;2.05;1.35;;;21.00;99.90;;;;;;5118402;28;20458;-58
2023/06/11 06:23:33;;;;;;;2.10;1.60;;;21.00;99.90;;;;;;5118611;28;20503;-59
2023/06/11 06:26:00;;;;;;;2.08;1.40;;;21.00;99.90;;;;;;5117928;28;20428;-58
2023/06/11 06:28:27;;;;;;;1.80;1.60;;;21.00;99.90;;;;;;5117215;28;20795;-59
2023/06/11 06:30:54;;;;;;;1.92;1.50;;;21.10;99.90;;;;;;5117911;28;20717;-59
2023/06/11 06:33:23;;;;;;;1.60;1.30;;;21.20;99.90;;;;;;5116644;28;20431;-58
2023/06/11 06:35:52;;;;;;;2.15;1.35;;;21.20;99.90;;;;;;5118223;28;20420;-59
2023/06/11 06:38:20;;;;;;;2.00;1.40;;;21.30;99.90;;;;;;5118211;28;20478;-58
2023/06/11 06:40:47;;;;;;;1.60;1.30;;;21.40;99.90;;;;;;5117171;28;20539;-59
2023/06/11 06:43:14;;;;;;;1.80;1.30;;;21.30;99.90;;;;;;5118081;28;20431;-59
2023/06/11 06:45:41;;;;;;;1.50;1.40;;;21.40;99.90;;;;;;5117963;28;20431;-59
2023/06/11 06:48:08;;;;;;;1.80;1.50;;;21.50;99.90;;;;;;5117975;28;20517;-59
2023/06/11 06:50:35;;;;;;;1.48;1.30;;;21.60;99.90;;;;;;5117868;28;20835;-58
2023/06/11 06:53:04;;;;;;;1.60;1.30;;;21.80;99.90;;;;;;5115414;28;20479;-57
2023/06/11 06:55:31;;;;;;;1.40;1.27;;;21.90;99.90;;;;;;5114914;28;20485;-57
2023/06/11 06:57:58;;;;;;;1.70;1.33;;;22.10;99.90;;;;;;5117475;28;20530;-58
2023/06/11 07:00:25;;;;;;;2.05;1.40;;;22.20;99.90;;;;;;5116384;28;20451;-58
2023/06/11 07:02:51;;;;;;;1.70;1.25;;;22.20;99.90;;;;;;5116880;28;20831;-58
2023/06/11 07:05:18;;;;;;;1.70;1.40;;;22.30;99.90;;;;;;5116959;28;20488;-58
2023/06/11 07:07:45;;;;;;;2.10;1.20;;;22.40;99.90;;;;;;5117019;28;20412;-58
2023/06/11 07:10:14;;;;;;;1.67;1.40;;;22.50;99.90;;;;;;5117184;28;20486;-58
2023/06/11 07:12:41;;;;;;;2.40;1.52;;;22.60;99.90;;;;;;5117343;28;20436;-65
2023/06/11 07:15:08;;;;;;;1.50;1.30;;;22.70;99.90;;;;;;5116937;28;20442;-59
2023/06/11 07:17:35;;;;;;;1.65;1.30;;;22.80;99.90;;;;;;5117260;28;20412;-59
2023/06/11 07:20:04;;;;;;;3.20;1.60;;;22.60;99.90;;;;;;5116785;28;21281;-57
2023/06/11 07:22:31;;;;;;;1.48;1.30;;;22.60;99.90;;;;;;5117010;28;20454;-57
2023/06/11 07:24:58;;;;;;;1.70;1.40;;;22.70;99.90;;;;;;5116463;28;20424;-57
2023/06/11 07:27:27;;;;;;;2.47;1.48;;;22.80;99.90;;;;;;5116739;28;20835;-57
2023/06/11 07:29:54;;;;;;;2.10;1.40;;;22.90;99.90;;;;;;5115535;28;20473;-58
2023/06/11 07:32:21;;;;;;;2.10;1.40;;;22.90;99.90;;;;;;5115309;28;20758;-58
2023/06/11 07:34:48;;;;;;;1.70;1.25;;;22.70;99.90;;;;;;5116600;28;20425;-58
2023/06/11 07:37:15;;;;;;;2.88;1.40;;;22.70;99.90;;;;;;5116732;28;20428;-58
2023/06/11 07:39:42;;;;;;;1.88;1.50;;;22.70;99.90;;;;;;5116545;28;20432;-58
2023/06/11 07:42:09;;;;;;;1.90;1.50;;;22.80;99.90;;;;;;5114087;28;20517;-57
2023/06/11 07:44:37;;;;;;;3.53;1.50;;;23.00;99.90;;;;;;5114080;28;20452;-58
2023/06/11 07:47:05;;;;;;;2.03;1.50;;;23.00;99.90;;;;;;5113503;28;20420;-59
2023/06/11 07:49:32;;;;;;;2.20;1.42;;;23.10;99.90;;;;;;5114210;28;20832;-59
2023/06/11 07:51:58;;;;;;;1.90;1.40;;;23.10;99.90;;;;;;5112892;28;20438;-59
2023/06/11 07:54:25;;;;;;;1.60;1.38;;;23.30;99.90;;;;;;5111616;28;20797;-59
2023/06/11 07:56:53;;;;;;;1.90;1.30;;;23.40;99.90;;;;;;5110784;28;20412;-58
2023/06/11 07:59:20;;;;;;;1.63;1.30;;;23.50;99.90;;;;;;5112351;28;20431;-59
2023/06/11 08:01:48;;;;;;;1.50;1.40;;;23.60;99.90;;;;;;5113621;28;20424;-59
2023/06/11 08:04:15;;;;;;;1.53;1.20;;;23.70;99.90;;;;;;5113662;28;20556;-57
2023/06/11 08:06:43;;;;;;;1.40;1.20;;;23.60;99.90;;;;;;5114254;28;20431;-58
2023/06/11 08:09:10;;;;;;;1.60;1.38;;;23.60;99.90;;;;;;5114299;28;20411;-58
2023/06/11 08:11:37;;;;;;;1.50;1.30;;;23.70;99.90;;;;;;5115425;28;20893;-58
2023/06/11 08:14:04;;;;;;;2.20;1.10;;;23.90;99.90;;;;;;5115509;28;20426;-58
2023/06/11 08:16:31;;;;;;;1.50;1.10;;;24.10;99.90;;;;;;5115761;28;20812;-58
2023/06/11 08:18:59;;;;;;;1.40;1.30;;;24.20;99.90;;;;;;5114656;28;20435;-57
2023/06/11 08:21:26;;;;;;;1.60;1.20;;;24.20;99.90;;;;;;5115355;28;20850;-58
2023/06/11 08:23:54;;;;;;;2.08;1.20;;;24.10;99.90;;;;;;5114264;28;20420;-57
2023/06/11 08:26:21;;;;;;;3.17;1.27;;;24.20;99.90;;;;;;5115683;28;20903;-57
2023/06/11 08:28:48;;;;;;;1.42;1.17;;;24.30;99.90;;;;;;5114669;28;20523;-57
2023/06/11 08:31:15;;;;;;;1.80;1.20;;;24.40;99.90;;;;;;5115007;28;20455;-58
2023/06/11 08:33:42;;;;;;;1.40;1.20;;;24.40;99.90;;;;;;5114987;28;20424;-58
2023/06/11 08:36:11;;;;;;;2.10;1.33;;;24.20;99.90;;;;;;5115932;28;20419;-58
2023/06/11 08:38:38;;;;;;;2.10;1.30;;;24.30;99.90;;;;;;5113865;28;20465;-58
2023/06/11 08:41:05;;;;;;;1.88;1.20;;;24.30;99.90;;;;;;5114043;28;20423;-57
2023/06/11 08:43:32;;;;;;;1.90;1.17;;;24.30;99.90;;;;;;5114732;28;20481;-57
2023/06/11 08:45:59;;;;;;;1.80;1.20;;;24.30;99.90;;;;;;5114693;28;20593;-58
2023/06/11 08:48:29;;;;;;;2.15;1.40;;;24.30;99.90;;;;;;5114683;28;20423;-57
2023/06/11 08:50:57;;;;;;;1.63;1.20;;;24.20;99.90;;;;;;5113512;28;20420;-56
2023/06/11 08:53:28;;;;;;;1.35;1.20;;;24.30;99.90;;;;;;5115217;28;20549;-57
2023/06/11 08:55:55;;;;;;;1.50;1.20;;;24.30;99.90;;;;;;5114774;28;20428;-58
2023/06/11 08:58:23;;;;;;;1.40;1.10;;;24.50;99.90;;;;;;5114887;28;20865;-58
2023/06/11 09:00:50;;;;;;;1.50;1.20;;;24.80;99.90;;;;;;5113901;28;20460;-58
2023/06/11 09:03:17;;;;;;;1.70;1.20;;;25.00;99.90;;;;;;5113890;28;20435;-57
2023/06/11 09:05:45;;;;;;;1.63;1.20;;;25.00;99.90;;;;;;5113406;28;20571;-57
2023/06/11 09:08:12;;;;;;;1.40;1.30;;;25.30;99.90;;;;;;5114159;28;20427;-58
2023/06/11 09:10:50;;;;;;;2.00;1.30;;;25.50;99.90;;;;;;5112536;28;20424;-56
2023/06/11 09:13:17;;;;;;;1.93;1.20;;;25.50;99.90;;;;;;5114326;28;20424;-58
2023/06/11 09:15:48;;;;;;;1.50;1.30;;;25.50;99.90;;;;;;5114442;28;20448;-58
2023/06/11 09:18:19;;;;;;;1.35;1.20;;;25.60;99.90;;;;;;5114378;28;20419;-58
2023/06/11 09:20:52;;;;;;;1.42;1.10;;;25.70;99.90;;;;;;5113583;28;20835;-58
2023/06/11 09:23:27;;;;;;;1.30;1.20;;;25.70;99.90;;;;;;5117646;28;20427;-58
2023/06/11 09:25:56;;;;;;;1.50;1.20;;;25.80;99.90;;;;;;5120982;28;20459;-58
2023/06/11 09:28:29;;;;;;;1.40;1.30;;;25.90;99.90;;;;;;5111911;28;20698;-58
2023/06/11 09:30:56;;;;;;;1.33;1.20;;;26.10;99.90;;;;;;5108603;28;20446;-60
2023/06/11 09:33:23;;;;;;;1.58;1.30;;;26.20;99.90;;;;;;5100025;28;20440;-59
2023/06/11 09:35:50;;;;;;;1.77;1.20;;;26.50;99.90;;;;;;5099814;28;20467;-58
2023/06/11 09:38:18;;;;;;;1.50;1.30;;;26.40;99.90;;;;;;5100584;28;20535;-58
2023/06/11 09:40:49;;;;;;;1.50;1.10;;;26.30;99.90;;;;;;5100035;28;20433;-58
2023/06/11 09:43:20;;;;;;;1.70;1.10;;;26.40;99.90;;;;;;5099665;28;20434;-58
2023/06/11 09:45:52;;;;;;;1.40;1.20;;;26.40;99.90;;;;;;5099765;28;20485;-58
2023/06/11 09:48:20;;;;;;;1.63;1.10;;;26.50;99.90;;;;;;5098367;28;20718;-58
2023/06/11 09:50:48;;;;;;;1.95;1.20;;;26.50;99.90;;;;;;5098460;28;20482;-58
2023/06/11 09:53:16;;;;;;;1.30;1.10;;;26.70;99.90;;;;;;5098330;28;20734;-58
2023/06/11 09:55:43;;;;;;;1.40;1.20;;;26.90;98.50;;;;;;5120858;28;20473;-58
2023/06/11 09:58:11;;;;;;;1.30;1.20;;;26.90;97.80;;;;;;5119072;28;20552;-58
2023/06/11 10:00:40;;;;;;;1.40;1.13;;;26.80;98.60;;;;;;5119896;28;20455;-58
2023/06/11 10:03:08;;;;;;;1.35;1.10;;;27.10;97.10;;;;;;5120386;28;20434;-58
2023/06/11 10:05:36;;;;;;;1.50;1.20;;;27.40;94.10;;;;;;5121062;28;20470;-58
2023/06/11 10:08:07;;;;;;;1.20;1.10;;;27.40;93.30;;;;;;5120768;28;20514;-58
2023/06/11 10:10:38;;;;;;;2.10;1.30;;;27.50;93.40;;;;;;5118224;28;20435;-58
2023/06/11 10:13:05;;;;;;;1.53;1.20;;;27.60;93.50;;;;;;5116568;28;20500;-57
2023/06/11 10:15:33;;;;;;;1.90;1.50;;;28.10;91.80;;;;;;5115651;28;20440;-58
2023/06/11 10:18:02;;;;;;;1.40;1.30;;;28.10;88.60;;;;;;5118873;28;20902;-58
2023/06/11 10:20:31;;;;;;;1.20;1.10;;;28.10;89.40;;;;;;5114014;28;20435;-57
2023/06/11 10:23:06;;;;;;;1.45;1.10;;;27.80;84.30;;;;;;5118208;28;20436;-59
2023/06/11 10:25:34;;;;;;;2.47;1.30;;;27.80;85.20;;;;;;5116125;28;20436;-59
2023/06/11 10:28:01;;;;;;;1.20;1.00;;;28.00;85.60;;;;;;5117671;28;20759;-59
2023/06/11 10:30:28;;;;;;;1.20;1.00;;;28.30;78.00;;;;;;5113803;28;20419;-60
2023/06/11 10:32:57;;;;;;;1.20;1.10;;;28.30;79.30;;;;;;5116900;28;20463;-59
2023/06/11 10:35:28;;;;;;;1.20;1.10;;;28.70;75.70;;;;;;5115857;28;20424;-59
2023/06/11 10:38:04;;;;;;;1.20;1.10;;;29.20;72.20;;;;;;5115181;28;20863;-59
2023/06/11 10:40:35;;;;;;;1.40;1.20;;;28.90;71.00;;;;;;5115685;28;20497;-59
2023/06/11 10:43:04;;;;;;;1.33;1.20;;;28.90;71.30;;;;;;5113805;28;20805;-58
2023/06/11 10:45:35;;;;;;;1.40;1.20;;;28.90;70.50;;;;;;5109215;28;20488;-58
2023/06/11 10:48:03;;;;;;;1.30;1.10;;;29.00;70.10;;;;;;5116135;28;20466;-59
2023/06/11 10:50:33;;;;;;;1.30;1.15;;;29.40;70.10;;;;;;5105312;28;20434;-58
2023/06/11 10:53:02;;;;;;;1.30;1.20;;;29.90;68.00;;;;;;5095121;28;20414;-59
2023/06/11 10:55:30;;;;;;;1.52;1.10;;;30.20;66.90;;;;;;5104916;28;20504;-58
2023/06/11 10:57:58;;;;;;;1.30;1.10;;;29.80;64.20;;;;;;5113518;28;20596;-59
2023/06/11 11:00:28;;;;;;;1.42;1.20;;;29.50;66.80;;;;;;5115471;28;20922;-59
2023/06/11 11:02:57;;;;;;;2.90;1.30;;;29.30;66.80;;;;;;5115439;28;20567;-59
2023/06/11 11:05:25;;;;;;;1.60;1.20;;;29.50;64.70;;;;;;5115202;28;20712;-59
2023/06/11 11:07:54;;;;;;;1.50;1.27;;;29.60;65.80;;;;;;5115286;28;20443;-59
2023/06/11 11:10:27;;;;;;;2.20;1.30;;;29.70;64.40;;;;;;5111163;28;20512;-58
2023/06/11 11:12:55;;;;;;;1.50;1.10;;;29.80;63.60;;;;;;5114759;28;20424;-58
2023/06/11 11:15:22;;;;;;;1.73;1.20;;;30.00;64.80;;;;;;5110830;28;20874;-58
2023/06/11 11:17:50;;;;;;;1.50;1.10;;;30.30;62.50;;;;;;5114388;28;20912;-58
2023/06/11 11:20:19;;;;;;;2.30;1.20;;;30.70;60.30;;;;;;5116097;28;20464;-59
2023/06/11 11:22:51;;;;;;;1.40;1.20;;;30.90;58.00;;;;;;5116885;28;20456;-59
2023/06/11 11:25:21;;;;;;;1.35;1.25;;;30.50;58.80;;;;;;5109669;28;20843;-58
2023/06/11 11:27:49;;;;;;;1.20;1.10;;;30.40;58.70;;;;;;5115053;28;20482;-58
2023/06/11 11:30:17;;;;;;;1.48;1.20;;;30.70;58.60;;;;;;5112735;28;20432;-59
2023/06/11 11:32:44;;;;;;;1.30;1.20;;;30.60;58.40;;;;;;5115796;28;20499;-60
2023/06/11 11:35:14;;;;;;;1.88;1.30;;;30.50;59.90;;;;;;5097061;28;20437;-59
2023/06/11 11:37:41;;;;;;;1.30;1.20;;;30.00;56.90;;;;;;5104790;28;20866;-58
2023/06/11 11:40:09;;;;;;;2.50;1.20;;;29.80;58.30;;;;;;5105092;28;20469;-59
2023/06/11 11:42:48;;;;;;;1.47;1.20;;;29.90;59.20;;;;;;5096365;28;20865;-59
2023/06/11 11:45:15;;;;;;;1.50;1.20;;;30.00;58.50;;;;;;5095396;28;20434;-59
2023/06/11 11:47:44;;;;;;;1.90;1.15;;;30.20;58.20;;;;;;5095551;28;20487;-58
2023/06/11 11:50:21;;;;;;;1.40;1.30;;;30.40;58.20;;;;;;5095771;28;20791;-59
2023/06/11 11:53:02;;;;;;;1.30;1.20;;;30.70;56.50;;;;;;5096377;28;20775;-59
2023/06/11 11:55:30;;;;;;;2.30;1.20;;;31.10;55.80;;;;;;5094776;28;20724;-59
2023/06/11 11:58:05;;;;;;;1.25;1.10;;;30.90;54.00;;;;;;5098265;28;20455;-58
2023/06/11 12:00:33;;;;;;;1.70;1.05;;;31.30;53.60;;;;;;5106187;28;20867;-59
2023/06/11 12:03:07;;;;;;;1.80;1.20;;;32.00;53.10;;;;;;5115461;28;20432;-58
2023/06/11 12:05:34;;;;;;;1.50;1.20;;;32.00;52.30;;;;;;5116379;28;20452;-59
2023/06/11 12:08:01;;;;;;;1.30;1.10;;;31.20;52.30;;;;;;5116101;28;20453;-59
2023/06/11 12:10:28;;;;;;;1.80;1.10;;;30.50;54.80;;;;;;5114644;28;20530;-59
2023/06/11 12:12:55;;;;;;;1.42;1.10;;;30.30;51.60;;;;;;5112236;28;20703;-58
2023/06/11 12:15:23;;;;;;;1.70;1.10;;;30.10;51.60;;;;;;5113841;28;20899;-59
2023/06/11 12:17:51;;;;;;;1.20;1.10;;;30.10;51.70;;;;;;5114480;28;20836;-59
2023/06/11 12:20:20;;;;;;;1.30;1.10;;;30.30;51.30;;;;;;5114934;28;20470;-59
2023/06/11 12:22:47;;;;;;;2.00;1.20;;;30.50;51.20;;;;;;5115881;28;20809;-59
2023/06/11 12:25:15;;;;;;;2.00;1.30;;;30.20;52.00;;;;;;5114192;28;20447;-59
2023/06/11 12:27:43;;;;;;;1.85;1.20;;;30.30;52.00;;;;;;5113898;28;20432;-59
2023/06/11 12:30:11;;;;;;;2.10;1.25;;;30.70;52.20;;;;;;5114355;28;20484;-59
2023/06/11 12:32:40;;;;;;;1.40;1.17;;;31.00;50.60;;;;;;5114900;28;20416;-59
2023/06/11 12:35:08;;;;;;;1.85;1.20;;;31.10;51.00;;;;;;5114619;28;20416;-59
2023/06/11 12:37:36;;;;;;;1.52;1.20;;;31.50;51.70;;;;;;5114012;28;20440;-58
2023/06/11 12:40:03;;;;;;;1.80;1.10;;;31.40;49.80;;;;;;5098272;28;20438;-59
2023/06/11 12:42:32;;;;;;;1.30;1.20;;;31.40;50.00;;;;;;5115261;28;20436;-55
2023/06/11 12:44:59;;;;;;;2.40;1.13;;;31.80;49.50;;;;;;5102668;28;20524;-53
2023/06/11 12:47:26;;;;;;;1.40;1.10;;;31.70;47.20;;;;;;5099292;28;20869;-54
2023/06/11 12:49:54;;;;;;;1.50;1.13;;;31.50;48.30;;;;;;5093247;28;20422;-54
2023/06/11 12:52:21;;;;;;;1.23;1.10;;;31.10;48.80;;;;;;5093034;28;20771;-54